sensor_id;sensor_type;location;lat;lon;timestamp;pressure;altitude;pressure_sealevel;temperature;humidity
41264;BME280;26998;48.714;9.414;2022-10-16T00:01:30;99130.28;;;13.58;100.00
41264;BME280;26998;48.714;9.414;2022-10-16T00:03:58;99120.97;;;13.60;100.00
41264;BME280;26998;48.714;9.414;2022-10-16T00:06:27;99129.03;;;13.60;100.00
41264;BME280;26998;48.714;9.414;2022-10-16T00:08:55;99126.34;;;13.60;100.00
41264;BME280;26998;48.714;9.414;2022-10-16T00:11:27;99132.75;;;13.59;100.00
41264;BME280;26998;48.714;9.414;2022-10-16T00:13:57;99129.84;;;13.61;100.00
41264;BME280;26998;48.714;9.414;2022-10-16T00:16:25;99127.16;;;13.61;100.00
41264;BME280;26998;48.714;9.414;2022-10-16T00:18:52;99121.63;;;13.56;100.00
41264;BME280;26998;48.714;9.414;2022-10-16T00:21:21;99123.47;;;13.55;100.00
41264;BME280;26998;48.714;9.414;2022-10-16T00:23:59;99121.22;;;13.52;100.00
41264;BME280;26998;48.714;9.414;2022-10-16T00:26:28;99127.84;;;13.50;100.00
41264;BME280;26998;48.714;9.414;2022-10-16T00:28:55;99124.53;;;13.48;100.00
41264;BME280;26998;48.714;9.414;2022-10-16T00:31:22;99129.06;;;13.47;100.00
41264;BME280;26998;48.714;9.414;2022-10-16T00:33:50;99141.88;;;13.45;100.00
41264;BME280;26998;48.714;9.414;2022-10-16T00:36:20;99138.38;;;13.45;100.00
41264;BME280;26998;48.714;9.414;2022-10-16T00:38:50;99145.78;;;13.43;100.00
41264;BME280;26998;48.714;9.414;2022-10-16T00:41:17;99137.16;;;13.40;100.00
41264;BME280;26998;48.714;9.414;2022-10-16T00:43:46;99138.78;;;13.35;100.00
41264;BME280;26998;48.714;9.414;2022-10-16T00:46:25;99132.81;;;13.33;100.00
41264;BME280;26998;48.714;9.414;2022-10-16T00:48:59;99132.19;;;13.31;100.00
41264;BME280;26998;48.714;9.414;2022-10-16T00:51:39;99126.44;;;13.27;100.00
41264;BME280;26998;48.714;9.414;2022-10-16T00:54:10;99120.44;;;13.25;100.00
41264;BME280;26998;48.714;9.414;2022-10-16T00:56:41;99125.81;;;13.25;100.00
41264;BME280;26998;48.714;9.414;2022-10-16T00:59:15;99120.81;;;13.22;100.00
41264;BME280;26998;48.714;9.414;2022-10-16T01:01:42;99125.78;;;13.18;100.00
41264;BME280;26998;48.714;9.414;2022-10-16T01:04:08;99113.78;;;13.14;100.00
41264;BME280;26998;48.714;9.414;2022-10-16T01:06:59;99116.06;;;13.11;100.00
41264;BME280;26998;48.714;9.414;2022-10-16T01:09:34;99123.53;;;13.09;100.00
41264;BME280;26998;48.714;9.414;2022-10-16T01:12:44;99125.38;;;13.08;100.00
41264;BME280;26998;48.714;9.414;2022-10-16T01:15:31;99128.69;;;13.04;100.00
41264;BME280;26998;48.714;9.414;2022-10-16T01:18:10;99132.81;;;13.00;100.00
41264;BME280;26998;48.714;9.414;2022-10-16T01:21:02;99135.50;;;13.00;100.00
41264;BME280;26998;48.714;9.414;2022-10-16T01:23:43;99135.69;;;12.98;100.00
41264;BME280;26998;48.714;9.414;2022-10-16T01:26:30;99140.06;;;12.99;100.00
41264;BME280;26998;48.714;9.414;2022-10-16T01:29:09;99138.59;;;12.97;100.00
41264;BME280;26998;48.714;9.414;2022-10-16T01:31:40;99142.09;;;12.97;100.00
41264;BME280;26998;48.714;9.414;2022-10-16T01:34:15;99148.28;;;12.98;100.00
41264;BME280;26998;48.714;9.414;2022-10-16T01:36:50;99136.72;;;12.97;100.00
41264;BME280;26998;48.714;9.414;2022-10-16T01:39:22;99137.78;;;12.96;100.00
41264;BME280;26998;48.714;9.414;2022-10-16T01:42:00;99122.91;;;12.93;100.00
41264;BME280;26998;48.714;9.414;2022-10-16T01:44:33;99125.59;;;12.93;100.00
41264;BME280;26998;48.714;9.414;2022-10-16T01:47:01;99118.38;;;12.94;100.00
41264;BME280;26998;48.714;9.414;2022-10-16T01:49:32;99126.84;;;12.91;100.00
41264;BME280;26998;48.714;9.414;2022-10-16T01:52:06;99123.31;;;12.90;100.00
41264;BME280;26998;48.714;9.414;2022-10-16T01:54:37;99107.66;;;12.87;100.00
41264;BME280;26998;48.714;9.414;2022-10-16T01:57:07;99108.06;;;12.84;100.00
41264;BME280;26998;48.714;9.414;2022-10-16T01:59:39;99109.06;;;12.83;100.00
41264;BME280;26998;48.714;9.414;2022-10-16T02:02:09;99107.66;;;12.81;100.00
41264;BME280;26998;48.714;9.414;2022-10-16T02:04:49;99103.91;;;12.82;100.00
41264;BME280;26998;48.714;9.414;2022-10-16T02:07:19;99102.28;;;12.81;100.00
41264;BME280;26998;48.714;9.414;2022-10-16T02:09:45;99103.09;;;12.81;100.00
41264;BME280;26998;48.714;9.414;2022-10-16T02:12:26;99098.56;;;12.82;100.00
41264;BME280;26998;48.714;9.414;2022-10-16T02:14:54;99087.00;;;12.81;100.00
41264;BME280;26998;48.714;9.414;2022-10-16T02:17:21;99099.59;;;12.81;100.00
41264;BME280;26998;48.714;9.414;2022-10-16T02:19:50;99099.78;;;12.79;100.00
41264;BME280;26998;48.714;9.414;2022-10-16T02:22:34;99107.22;;;12.77;100.00
41264;BME280;26998;48.714;9.414;2022-10-16T02:27:45;99116.69;;;12.80;100.00
41264;BME280;26998;48.714;9.414;2022-10-16T02:30:28;99115.88;;;12.79;100.00
41264;BME280;26998;48.714;9.414;2022-10-16T02:32:58;99116.09;;;12.84;100.00
41264;BME280;26998;48.714;9.414;2022-10-16T02:35:27;99119.59;;;12.85;100.00
41264;BME280;26998;48.714;9.414;2022-10-16T02:37:55;99115.06;;;12.85;100.00
41264;BME280;26998;48.714;9.414;2022-10-16T02:40:23;99116.94;;;12.85;100.00
41264;BME280;26998;48.714;9.414;2022-10-16T02:42:52;99101.44;;;12.80;100.00
41264;BME280;26998;48.714;9.414;2022-10-16T02:45:19;99089.69;;;12.81;100.00
41264;BME280;26998;48.714;9.414;2022-10-16T02:47:47;99095.88;;;12.82;100.00
41264;BME280;26998;48.714;9.414;2022-10-16T02:50:14;99082.47;;;12.82;100.00
41264;BME280;26998;48.714;9.414;2022-10-16T02:52:41;99091.97;;;12.84;100.00
41264;BME280;26998;48.714;9.414;2022-10-16T02:55:08;99088.88;;;12.87;100.00
41264;BME280;26998;48.714;9.414;2022-10-16T02:57:34;99091.13;;;12.90;100.00
41264;BME280;26998;48.714;9.414;2022-10-16T03:00:01;99099.59;;;12.94;100.00
41264;BME280;26998;48.714;9.414;2022-10-16T03:02:27;99103.72;;;12.97;100.00
41264;BME280;26998;48.714;9.414;2022-10-16T03:04:53;99106.59;;;12.95;100.00
41264;BME280;26998;48.714;9.414;2022-10-16T03:07:20;99113.81;;;12.94;100.00
41264;BME280;26998;48.714;9.414;2022-10-16T03:09:46;99115.69;;;12.94;100.00
41264;BME280;26998;48.714;9.414;2022-10-16T03:12:14;99109.91;;;12.90;100.00
41264;BME280;26998;48.714;9.414;2022-10-16T03:14:43;99117.56;;;12.93;100.00
41264;BME280;26998;48.714;9.414;2022-10-16T03:17:10;99113.00;;;12.94;100.00
41264;BME280;26998;48.714;9.414;2022-10-16T03:19:36;99111.97;;;12.95;100.00
41264;BME280;26998;48.714;9.414;2022-10-16T03:22:04;99118.38;;;12.94;100.00
41264;BME280;26998;48.714;9.414;2022-10-16T03:24:30;99104.53;;;12.90;100.00
41264;BME280;26998;48.714;9.414;2022-10-16T03:26:58;99105.56;;;12.89;100.00
41264;BME280;26998;48.714;9.414;2022-10-16T03:29:26;99098.78;;;12.87;100.00
41264;BME280;26998;48.714;9.414;2022-10-16T03:31:53;99104.97;;;12.87;100.00
41264;BME280;26998;48.714;9.414;2022-10-16T03:34:19;99105.97;;;12.86;100.00
41264;BME280;26998;48.714;9.414;2022-10-16T03:36:46;99104.34;;;12.85;100.00
41264;BME280;26998;48.714;9.414;2022-10-16T03:39:13;99104.34;;;12.85;100.00
41264;BME280;26998;48.714;9.414;2022-10-16T03:41:39;99105.97;;;12.86;100.00
41264;BME280;26998;48.714;9.414;2022-10-16T03:44:06;99100.19;;;12.83;100.00
41264;BME280;26998;48.714;9.414;2022-10-16T03:46:32;99101.03;;;12.83;100.00
41264;BME280;26998;48.714;9.414;2022-10-16T03:48:59;99115.47;;;12.82;100.00
41264;BME280;26998;48.714;9.414;2022-10-16T03:51:28;99120.44;;;12.85;100.00
41264;BME280;26998;48.714;9.414;2022-10-16T03:53:54;99117.75;;;12.85;100.00
41264;BME280;26998;48.714;9.414;2022-10-16T03:56:21;99116.28;;;12.83;100.00
41264;BME280;26998;48.714;9.414;2022-10-16T03:58:47;99117.13;;;12.83;100.00
41264;BME280;26998;48.714;9.414;2022-10-16T04:01:14;99120.84;;;12.82;100.00
41264;BME280;26998;48.714;9.414;2022-10-16T04:03:40;99118.16;;;12.82;100.00
41264;BME280;26998;48.714;9.414;2022-10-16T04:06:07;99123.75;;;12.81;100.00
41264;BME280;26998;48.714;9.414;2022-10-16T04:08:34;99125.97;;;12.77;100.00
41264;BME280;26998;48.714;9.414;2022-10-16T04:11:00;99124.34;;;12.76;100.00
41264;BME280;26998;48.714;9.414;2022-10-16T04:13:27;99126.63;;;12.73;100.00
41264;BME280;26998;48.714;9.414;2022-10-16T04:15:53;99131.78;;;12.74;100.00
41264;BME280;26998;48.714;9.414;2022-10-16T04:18:20;99129.50;;;12.71;100.00
41264;BME280;26998;48.714;9.414;2022-10-16T04:20:46;99128.06;;;12.68;100.00
41264;BME280;26998;48.714;9.414;2022-10-16T04:23:12;99123.31;;;12.64;100.00
41264;BME280;26998;48.714;9.414;2022-10-16T04:25:39;99127.03;;;12.63;100.00
41264;BME280;26998;48.714;9.414;2022-10-16T04:28:07;99133.81;;;12.59;100.00
41264;BME280;26998;48.714;9.414;2022-10-16T04:30:33;99136.50;;;12.59;100.00
41264;BME280;26998;48.714;9.414;2022-10-16T04:33:01;99138.78;;;12.62;100.00
41264;BME280;26998;48.714;9.414;2022-10-16T04:35:29;99142.06;;;12.64;100.00
41264;BME280;26998;48.714;9.414;2022-10-16T04:37:57;99138.78;;;12.62;100.00
41264;BME280;26998;48.714;9.414;2022-10-16T04:40:24;99132.56;;;12.61;100.00
41264;BME280;26998;48.714;9.414;2022-10-16T04:42:50;99138.97;;;12.60;100.00
41264;BME280;26998;48.714;9.414;2022-10-16T04:45:19;99129.47;;;12.58;100.00
41264;BME280;26998;48.714;9.414;2022-10-16T04:47:46;99131.34;;;12.57;100.00
41264;BME280;26998;48.714;9.414;2022-10-16T04:50:13;99127.84;;;12.57;100.00
41264;BME280;26998;48.714;9.414;2022-10-16T04:52:40;99128.66;;;12.57;100.00
41264;BME280;26998;48.714;9.414;2022-10-16T04:55:07;99131.56;;;12.56;100.00
41264;BME280;26998;48.714;9.414;2022-10-16T04:57:34;99134.03;;;12.57;100.00
41264;BME280;26998;48.714;9.414;2022-10-16T05:00:00;99144.97;;;12.56;100.00
41264;BME280;26998;48.714;9.414;2022-10-16T05:02:28;99144.31;;;12.54;100.00
41264;BME280;26998;48.714;9.414;2022-10-16T05:04:54;99147.00;;;12.54;100.00
41264;BME280;26998;48.714;9.414;2022-10-16T05:07:20;99148.88;;;12.53;100.00
41264;BME280;26998;48.714;9.414;2022-10-16T05:09:47;99152.38;;;12.54;100.00
41264;BME280;26998;48.714;9.414;2022-10-16T05:12:14;99156.69;;;12.55;100.00
41264;BME280;26998;48.714;9.414;2022-10-16T05:14:40;99151.75;;;12.52;100.00
41264;BME280;26998;48.714;9.414;2022-10-16T05:17:07;99150.72;;;12.53;100.00
41264;BME280;26998;48.714;9.414;2022-10-16T05:19:33;99146.19;;;12.53;100.00
41264;BME280;26998;48.714;9.414;2022-10-16T05:22:00;99161.22;;;12.54;100.00
41264;BME280;26998;48.714;9.414;2022-10-16T05:24:27;99168.66;;;12.52;100.00
41264;BME280;26998;48.714;9.414;2022-10-16T05:26:55;99165.16;;;12.52;100.00
41264;BME280;26998;48.714;9.414;2022-10-16T05:29:22;99165.53;;;12.48;100.00
41264;BME280;26998;48.714;9.414;2022-10-16T05:31:51;99155.03;;;12.47;100.00
41264;BME280;26998;48.714;9.414;2022-10-16T05:34:17;99156.69;;;12.48;100.00
41264;BME280;26998;48.714;9.414;2022-10-16T05:36:43;99155.03;;;12.47;100.00
41264;BME280;26998;48.714;9.414;2022-10-16T05:39:10;99158.72;;;12.46;100.00
41264;BME280;26998;48.714;9.414;2022-10-16T05:41:37;99156.50;;;12.43;100.00
41264;BME280;26998;48.714;9.414;2022-10-16T05:44:05;99161.63;;;12.44;100.00
41264;BME280;26998;48.714;9.414;2022-10-16T05:46:32;99164.06;;;12.39;100.00
41264;BME280;26998;48.714;9.414;2022-10-16T05:48:59;99168.63;;;12.39;100.00
41264;BME280;26998;48.714;9.414;2022-10-16T05:51:25;99166.56;;;12.34;100.00
41264;BME280;26998;48.714;9.414;2022-10-16T05:53:52;99170.25;;;12.33;100.00
41264;BME280;26998;48.714;9.414;2022-10-16T05:56:21;99176.06;;;12.37;100.00
41264;BME280;26998;48.714;9.414;2022-10-16T05:58:48;99184.28;;;12.35;100.00
41264;BME280;26998;48.714;9.414;2022-10-16T06:01:18;99172.34;;;12.38;100.00
41264;BME280;26998;48.714;9.414;2022-10-16T06:03:46;99176.06;;;12.43;100.00
41264;BME280;26998;48.714;9.414;2022-10-16T06:06:16;99187.22;;;12.47;100.00
41264;BME280;26998;48.714;9.414;2022-10-16T06:08:44;99179.75;;;12.42;100.00
41264;BME280;26998;48.714;9.414;2022-10-16T06:11:21;99179.75;;;12.42;100.00
41264;BME280;26998;48.714;9.414;2022-10-16T06:13:53;99185.97;;;12.43;100.00
41264;BME280;26998;48.714;9.414;2022-10-16T06:16:20;99188.66;;;12.50;100.00
41264;BME280;26998;48.714;9.414;2022-10-16T06:18:47;99193.81;;;12.58;100.00
41264;BME280;26998;48.714;9.414;2022-10-16T06:21:17;99203.75;;;12.64;100.00
41264;BME280;26998;48.714;9.414;2022-10-16T06:23:44;99205.63;;;12.70;100.00
41264;BME280;26998;48.714;9.414;2022-10-16T06:26:14;99204.56;;;12.64;100.00
41264;BME280;26998;48.714;9.414;2022-10-16T06:28:41;99212.66;;;12.71;100.00
41264;BME280;26998;48.714;9.414;2022-10-16T06:31:10;99210.19;;;12.89;100.00
41264;BME280;26998;48.714;9.414;2022-10-16T06:33:37;99221.75;;;12.97;100.00
41264;BME280;26998;48.714;9.414;2022-10-16T06:38:33;99220.31;;;12.94;100.00
41264;BME280;26998;48.714;9.414;2022-10-16T06:40:59;99235.59;;;13.00;100.00
41264;BME280;26998;48.714;9.414;2022-10-16T06:43:28;99230.44;;;13.12;100.00
41264;BME280;26998;48.714;9.414;2022-10-16T06:45:56;99249.69;;;13.29;100.00
41264;BME280;26998;48.714;9.414;2022-10-16T06:48:23;99250.09;;;13.32;100.00
41264;BME280;26998;48.714;9.414;2022-10-16T06:53:35;99273.03;;;13.28;100.00
41264;BME280;26998;48.714;9.414;2022-10-16T06:58:49;99312.69;;;13.59;100.00
41264;BME280;26998;48.714;9.414;2022-10-16T07:01:19;99335.22;;;13.85;100.00
41264;BME280;26998;48.714;9.414;2022-10-16T07:03:46;99357.09;;;13.95;100.00
41264;BME280;26998;48.714;9.414;2022-10-16T07:06:15;99373.66;;;14.12;100.00
41264;BME280;26998;48.714;9.414;2022-10-16T07:08:43;99374.47;;;14.06;100.00
41264;BME280;26998;48.714;9.414;2022-10-16T07:11:14;99389.56;;;14.07;100.00
41264;BME280;26998;48.714;9.414;2022-10-16T07:13:42;99325.69;;;14.02;100.00
41264;BME280;26998;48.714;9.414;2022-10-16T07:16:18;98862.88;;;14.00;100.00
41264;BME280;26998;48.714;9.414;2022-10-16T07:18:46;98854.00;;;14.00;100.00
41264;BME280;26998;48.714;9.414;2022-10-16T07:21:18;98869.88;;;14.01;100.00
41264;BME280;26998;48.714;9.414;2022-10-16T07:23:50;98868.41;;;14.05;100.00
41264;BME280;26998;48.714;9.414;2022-10-16T07:26:17;98869.78;;;14.15;100.00
41264;BME280;26998;48.714;9.414;2022-10-16T07:28:45;98874.84;;;14.23;100.00
41264;BME280;26998;48.714;9.414;2022-10-16T07:31:13;98883.47;;;14.31;100.00
41264;BME280;26998;48.714;9.414;2022-10-16T07:33:41;98886.91;;;14.39;100.00
41264;BME280;26998;48.714;9.414;2022-10-16T07:36:08;98898.28;;;14.41;100.00
41264;BME280;26998;48.714;9.414;2022-10-16T07:38:41;98897.38;;;14.47;100.00
41264;BME280;26998;48.714;9.414;2022-10-16T07:41:10;98900.44;;;14.50;100.00
41264;BME280;26998;48.714;9.414;2022-10-16T07:43:39;98900.69;;;14.49;100.00
41264;BME280;26998;48.714;9.414;2022-10-16T07:46:07;98908.97;;;14.47;100.00
41264;BME280;26998;48.714;9.414;2022-10-16T07:48:34;98918.59;;;14.37;100.00
41264;BME280;26998;48.714;9.414;2022-10-16T07:51:05;98922.19;;;14.49;100.00
41264;BME280;26998;48.714;9.414;2022-10-16T07:53:32;98922.59;;;14.52;100.00
41264;BME280;26998;48.714;9.414;2022-10-16T07:56:04;98920.16;;;14.44;100.00
41264;BME280;26998;48.714;9.414;2022-10-16T07:58:34;98919.72;;;14.47;100.00
41264;BME280;26998;48.714;9.414;2022-10-16T08:01:04;98916.16;;;14.53;100.00
41264;BME280;26998;48.714;9.414;2022-10-16T08:03:34;98918.41;;;14.57;100.00
41264;BME280;26998;48.714;9.414;2022-10-16T08:06:01;98920.91;;;14.58;100.00
41264;BME280;26998;48.714;9.414;2022-10-16T08:08:28;98927.22;;;14.64;100.00
41264;BME280;26998;48.714;9.414;2022-10-16T08:10:55;98920.47;;;14.61;100.00
41264;BME280;26998;48.714;9.414;2022-10-16T08:13:22;98930.53;;;14.66;100.00
41264;BME280;26998;48.714;9.414;2022-10-16T08:15:48;98922.09;;;14.62;100.00
41264;BME280;26998;48.714;9.414;2022-10-16T08:18:15;98926.13;;;14.71;100.00
41264;BME280;26998;48.714;9.414;2022-10-16T08:20:42;98929.94;;;14.82;100.00
41264;BME280;26998;48.714;9.414;2022-10-16T08:23:11;98926.88;;;14.78;100.00
41264;BME280;26998;48.714;9.414;2022-10-16T08:25:38;98939.50;;;14.78;100.00
41264;BME280;26998;48.714;9.414;2022-10-16T08:28:08;98943.19;;;14.84;100.00
41264;BME280;26998;48.714;9.414;2022-10-16T08:30:35;98936.59;;;14.98;100.00
41264;BME280;26998;48.714;9.414;2022-10-16T08:33:02;98935.56;;;14.99;100.00
41264;BME280;26998;48.714;9.414;2022-10-16T08:35:29;98939.38;;;15.10;100.00
41264;BME280;26998;48.714;9.414;2022-10-16T08:37:55;98937.72;;;15.27;100.00
41264;BME280;26998;48.714;9.414;2022-10-16T08:40:27;98943.38;;;15.37;100.00
41264;BME280;26998;48.714;9.414;2022-10-16T08:48:30;98932.22;;;15.52;100.00
41264;BME280;26998;48.714;9.414;2022-10-16T08:50:55;98931.94;;;15.72;100.00
41264;BME280;26998;48.714;9.414;2022-10-16T08:53:31;98931.84;;;15.79;100.00
41264;BME280;26998;48.714;9.414;2022-10-16T08:56:00;98935.16;;;15.81;100.00
41264;BME280;26998;48.714;9.414;2022-10-16T08:58:28;98935.81;;;15.76;100.00
41264;BME280;26998;48.714;9.414;2022-10-16T09:01:04;98942.78;;;15.84;100.00
41264;BME280;26998;48.714;9.414;2022-10-16T09:04:09;98949.72;;;16.03;100.00
41264;BME280;26998;48.714;9.414;2022-10-16T09:06:48;98943.03;;;15.94;100.00
41264;BME280;26998;48.714;9.414;2022-10-16T09:12:22;98964.94;;;15.98;100.00
41264;BME280;26998;48.714;9.414;2022-10-16T09:17:37;98968.38;;;16.16;100.00
41264;BME280;26998;48.714;9.414;2022-10-16T09:22:44;98961.31;;;17.04;100.00
41264;BME280;26998;48.714;9.414;2022-10-16T09:25:20;98959.63;;;17.03;100.00
41264;BME280;26998;48.714;9.414;2022-10-16T09:27:56;98953.22;;;16.93;100.00
41264;BME280;26998;48.714;9.414;2022-10-16T09:30:28;98948.03;;;17.03;100.00
41264;BME280;26998;48.714;9.414;2022-10-16T09:32:57;98953.75;;;17.06;100.00
41264;BME280;26998;48.714;9.414;2022-10-16T09:35:38;98953.16;;;17.16;100.00
41264;BME280;26998;48.714;9.414;2022-10-16T09:38:30;98950.06;;;17.36;100.00
41264;BME280;26998;48.714;9.414;2022-10-16T09:41:00;98963.22;;;17.73;100.00
41264;BME280;26998;48.714;9.414;2022-10-16T09:46:19;98938.84;;;17.85;100.00
41264;BME280;26998;48.714;9.414;2022-10-16T09:48:49;98944.84;;;18.37;100.00
41264;BME280;26998;48.714;9.414;2022-10-16T09:51:28;98934.72;;;18.44;100.00
41264;BME280;26998;48.714;9.414;2022-10-16T09:53:57;98936.56;;;18.61;100.00
41264;BME280;26998;48.714;9.414;2022-10-16T09:56:27;98925.41;;;18.74;100.00
41264;BME280;26998;48.714;9.414;2022-10-16T09:58:57;98926.06;;;18.64;100.00
41264;BME280;26998;48.714;9.414;2022-10-16T10:01:30;98917.97;;;19.25;100.00
41264;BME280;26998;48.714;9.414;2022-10-16T10:03:58;98925.81;;;19.05;100.00
41264;BME280;26998;48.714;9.414;2022-10-16T10:06:27;98925.03;;;18.87;100.00
41264;BME280;26998;48.714;9.414;2022-10-16T10:08:58;98926.66;;;18.50;100.00
41264;BME280;26998;48.714;9.414;2022-10-16T10:11:43;98917.72;;;18.49;100.00
41264;BME280;26998;48.714;9.414;2022-10-16T10:17:01;98915.56;;;19.07;100.00
41264;BME280;26998;48.714;9.414;2022-10-16T10:19:28;98915.41;;;19.90;100.00
41264;BME280;26998;48.714;9.414;2022-10-16T10:21:58;98913.81;;;19.94;100.00
41264;BME280;26998;48.714;9.414;2022-10-16T10:24:25;98909.53;;;20.35;100.00
41264;BME280;26998;48.714;9.414;2022-10-16T10:27:03;98902.56;;;20.49;100.00
41264;BME280;26998;48.714;9.414;2022-10-16T10:29:49;98908.84;;;20.50;100.00
41264;BME280;26998;48.714;9.414;2022-10-16T10:32:35;98904.28;;;20.23;100.00
41264;BME280;26998;48.714;9.414;2022-10-16T10:35:30;98916.84;;;20.02;100.00
41264;BME280;26998;48.714;9.414;2022-10-16T10:50:29;98911.16;;;21.31;100.00
41264;BME280;26998;48.714;9.414;2022-10-16T10:56:24;98914.53;;;21.59;100.00
41264;BME280;26998;48.714;9.414;2022-10-16T10:59:11;98916.09;;;21.39;100.00
41264;BME280;26998;48.714;9.414;2022-10-16T11:01:55;98912.13;;;21.88;100.00
41264;BME280;26998;48.714;9.414;2022-10-16T11:04:34;98912.44;;;22.17;100.00
41264;BME280;26998;48.714;9.414;2022-10-16T11:07:45;98908.06;;;22.01;95.46
41264;BME280;26998;48.714;9.414;2022-10-16T11:10:21;98900.41;;;21.77;95.82
41264;BME280;26998;48.714;9.414;2022-10-16T11:13:05;98899.34;;;21.99;93.64
41264;BME280;26998;48.714;9.414;2022-10-16T11:15:39;98901.81;;;22.26;98.69
41264;BME280;26998;48.714;9.414;2022-10-16T11:18:21;98903.97;;;22.39;97.22
41264;BME280;26998;48.714;9.414;2022-10-16T11:20:54;98895.25;;;22.11;93.14
41264;BME280;26998;48.714;9.414;2022-10-16T11:23:43;98897.72;;;22.33;91.37
41264;BME280;26998;48.714;9.414;2022-10-16T11:26:26;98893.50;;;22.92;87.31
41264;BME280;26998;48.714;9.414;2022-10-16T11:28:55;98886.53;;;22.55;84.70
41264;BME280;26998;48.714;9.414;2022-10-16T11:31:39;98884.78;;;23.00;84.32
41264;BME280;26998;48.714;9.414;2022-10-16T11:34:13;98885.63;;;23.56;81.57
41264;BME280;26998;48.714;9.414;2022-10-16T11:39:29;98885.38;;;24.55;73.86
41264;BME280;26998;48.714;9.414;2022-10-16T11:47:44;98885.50;;;24.10;70.69
41264;BME280;26998;48.714;9.414;2022-10-16T11:50:35;98893.75;;;23.61;71.69
41264;BME280;26998;48.714;9.414;2022-10-16T11:55:57;98872.16;;;23.20;75.97
41264;BME280;26998;48.714;9.414;2022-10-16T11:58:34;98880.47;;;22.74;75.59
41264;BME280;26998;48.714;9.414;2022-10-16T12:01:26;98874.69;;;23.06;76.16
41264;BME280;26998;48.714;9.414;2022-10-16T12:07:08;98872.81;;;23.51;72.67
41264;BME280;26998;48.714;9.414;2022-10-16T12:09:39;98872.63;;;23.82;72.81
41264;BME280;26998;48.714;9.414;2022-10-16T12:12:46;98870.16;;;23.85;71.79
41264;BME280;26998;48.714;9.414;2022-10-16T12:15:26;98865.00;;;23.34;71.11
41264;BME280;26998;48.714;9.414;2022-10-16T12:18:24;98864.34;;;23.52;71.82
41264;BME280;26998;48.714;9.414;2022-10-16T12:20:58;98870.44;;;23.84;70.65
41264;BME280;26998;48.714;9.414;2022-10-16T12:23:26;98855.16;;;23.83;70.44
41264;BME280;26998;48.714;9.414;2022-10-16T12:25:57;98856.81;;;23.34;71.00
41264;BME280;26998;48.714;9.414;2022-10-16T12:28:31;98851.69;;;23.72;72.25
41264;BME280;26998;48.714;9.414;2022-10-16T12:31:04;98859.06;;;24.06;67.73
41264;BME280;26998;48.714;9.414;2022-10-16T12:33:34;98870.13;;;24.19;65.60
41264;BME280;26998;48.714;9.414;2022-10-16T12:36:15;98862.84;;;24.39;64.41
41264;BME280;26998;48.714;9.414;2022-10-16T12:38:49;98863.72;;;23.61;67.69
41264;BME280;26998;48.714;9.414;2022-10-16T12:41:26;98871.50;;;23.43;68.00
41264;BME280;26998;48.714;9.414;2022-10-16T12:43:56;98869.19;;;23.61;69.00
41264;BME280;26998;48.714;9.414;2022-10-16T12:46:39;98874.69;;;23.95;66.03
41264;BME280;26998;48.714;9.414;2022-10-16T12:49:29;98874.75;;;24.24;66.73
41264;BME280;26998;48.714;9.414;2022-10-16T12:51:57;98880.78;;;23.87;66.56
41264;BME280;26998;48.714;9.414;2022-10-16T12:54:38;98879.53;;;24.08;66.44
41264;BME280;26998;48.714;9.414;2022-10-16T12:57:27;98882.19;;;24.13;65.75
41264;BME280;26998;48.714;9.414;2022-10-16T13:05:49;98877.19;;;23.91;65.23
41264;BME280;26998;48.714;9.414;2022-10-16T13:17:09;98889.22;;;23.46;67.13
41264;BME280;26998;48.714;9.414;2022-10-16T13:19:59;98892.59;;;23.77;67.25
41264;BME280;26998;48.714;9.414;2022-10-16T13:22:57;98889.50;;;23.89;64.79
41264;BME280;26998;48.714;9.414;2022-10-16T13:28:21;98890.63;;;24.17;62.89
41264;BME280;26998;48.714;9.414;2022-10-16T13:30:54;98890.41;;;24.72;60.84
41264;BME280;26998;48.714;9.414;2022-10-16T13:33:57;98879.22;;;24.92;59.12
41264;BME280;26998;48.714;9.414;2022-10-16T13:36:27;98889.69;;;24.32;59.96
41264;BME280;26998;48.714;9.414;2022-10-16T13:39:27;98896.31;;;24.55;58.81
41264;BME280;26998;48.714;9.414;2022-10-16T13:42:05;98885.72;;;24.77;57.22
41264;BME280;26998;48.714;9.414;2022-10-16T13:44:43;98891.38;;;24.57;60.27
41264;BME280;26998;48.714;9.414;2022-10-16T13:47:20;98895.97;;;24.85;55.94
41264;BME280;26998;48.714;9.414;2022-10-16T13:50:02;98895.34;;;24.94;55.74
41264;BME280;26998;48.714;9.414;2022-10-16T13:52:29;98889.41;;;24.62;57.24
41264;BME280;26998;48.714;9.414;2022-10-16T13:54:56;98890.28;;;23.94;59.43
41264;BME280;26998;48.714;9.414;2022-10-16T13:57:27;98879.75;;;24.12;63.74
41264;BME280;26998;48.714;9.414;2022-10-16T13:59:54;98890.81;;;23.96;63.62
41264;BME280;26998;48.714;9.414;2022-10-16T14:02:33;98883.13;;;23.59;62.98
41264;BME280;26998;48.714;9.414;2022-10-16T14:05:02;98876.88;;;23.54;65.59
41264;BME280;26998;48.714;9.414;2022-10-16T14:07:35;98880.19;;;23.50;67.48
41264;BME280;26998;48.714;9.414;2022-10-16T14:10:04;98873.78;;;23.26;69.72
41264;BME280;26998;48.714;9.414;2022-10-16T14:12:31;98871.44;;;22.99;70.07
41264;BME280;26998;48.714;9.414;2022-10-16T14:14:59;98873.41;;;22.68;71.37
41264;BME280;26998;48.714;9.414;2022-10-16T14:17:31;98871.78;;;22.72;72.41
41264;BME280;26998;48.714;9.414;2022-10-16T14:20:00;98876.72;;;22.59;72.46
41264;BME280;26998;48.714;9.414;2022-10-16T14:22:40;98873.97;;;22.70;72.87
41264;BME280;26998;48.714;9.414;2022-10-16T14:28:18;98878.34;;;22.60;75.46
41264;BME280;26998;48.714;9.414;2022-10-16T14:30:58;98879.47;;;22.49;74.47
41264;BME280;26998;48.714;9.414;2022-10-16T14:33:32;98875.66;;;22.55;73.60
41264;BME280;26998;48.714;9.414;2022-10-16T14:36:05;98877.25;;;22.67;71.77
41264;BME280;26998;48.714;9.414;2022-10-16T14:38:34;98873.91;;;22.85;71.89